Latest Coastal Weather Observations for Hobart

IDT60701

Issued at 8:22 pm EST Friday 19 July 2019 (issued every 10 minutes, with the page automatically refreshed every 10 minutes)

About coastal observations | Map of coastal stations | Coastal observations for TAS | Marine services | Other Formats
Station Details ID: 094029 Name: HOBART (ELLERSLIE ROAD) Lat: -42.89 Lon: 147.33 Height: 50.5 m
Data from the previous 72 hours. | See also: Recent months at Hobart
Date/Time
EST
Wind Sea
Height
m
Swell Vis
km
Cloud Weather Temp
°C
Press
hPa
Rain since
9am
mm
Dir  Spd
kts
Gust
kts
Height
m
Period
s
Dir
19/08:00pm NW 16 24 - - - - - - - 10.7 1015.2 0.0
19/07:30pm NW 14 18 - - - - - - - 10.7 1015.0 0.0
19/07:00pm NNW 15 21 - - - - - - - 10.9 1014.8 0.0
19/06:30pm NNW 14 20 - - - - - - - 11.2 1014.6 0.0
19/06:00pm NNW 13 23 - - - - - - - 11.4 1014.1 0.0
19/05:30pm NNW 13 21 - - - - - - - 12.0 1014.0 0.0
19/05:00pm NNW 12 17 - - - - - - - 12.0 1013.7 0.0
19/04:30pm NNW 13 18 - - - - - - - 12.0 1013.1 0.0
19/04:00pm NNW 11 19 - - - - - - - 12.5 1012.8 0.0
19/03:30pm N 3 9 - - - - - - - 13.0 1012.6 0.0
19/03:00pm W 10 19 - - - - - - - 13.5 1012.3 0.0
19/02:30pm NW 10 16 - - - - - - - 13.7 1011.6 0.0
19/02:00pm NW 8 14 - - - - - - - 13.4 1011.7 0.0
19/01:30pm ENE 6 9 - - - - - - - 13.5 1011.1 0.0
19/01:00pm WSW 6 15 - - - - - - - 13.6 1011.2 0.0
19/12:30pm N 10 18 - - - - - - - 12.9 1011.2 0.0
19/12:00pm ENE 8 15 - - - - - - - 12.7 1011.4 0.0
19/11:50am SW 15 27 - - - - - - - 14.6 1011.4 0.0
19/11:47am WSW 13 27 - - - - - - - 14.9 1011.0 0.0
19/11:44am NW 8 27 - - - - - - - 14.6 1011.2 0.0
19/11:30am NNW 8 13 - - - - - - - 14.2 1011.2 0.0
19/11:00am WNW 11 22 - - - - - - - 13.4 1010.9 0.0
19/10:30am W 16 36 - - - - - - - 12.8 1010.4 0.0
19/10:29am W 15 36 - - - - - - - 12.8 1010.4 0.0
19/10:23am WNW 14 36 - - - - - - - 12.7 1010.1 0.0
19/10:14am WNW 13 32 - - - - - - - 12.6 1010.0 0.0
19/10:08am W 16 32 - - - - - - - 12.7 1009.9 0.0
19/10:00am WNW 12 23 - - - - - - - 12.6 1010.0 0.0
19/09:31am WSW 14 32 - - - - - - - 13.1 1009.5 0.0
19/09:30am WSW 13 32 - - - - - - - 12.9 1009.5 0.0
19/09:28am WSW 11 32 - - - - - - - 12.7 1009.6 0.0
19/09:26am WSW 11 32 - - - - - - - 12.7 1009.6 0.0
19/09:25am SW 10 32 - - - - - - - 12.4 1009.4 0.0
19/09:00am ENE 8 15 - - - - - - - 11.4 1009.9 0.2
19/08:30am SW 10 25 - - - - - - - 9.6 1009.7 0.2
19/08:22am NNW 11 25 - - - - - - - 10.7 1009.8 0.2
19/08:00am S 9 18 - - - - - - - 10.2 1009.5 0.2
19/07:30am NNW 8 19 - - - - - - - 9.8 1009.2 0.2
19/07:00am NNE 7 12 - - - - - - - 8.3 1008.8 0.2
19/06:30am NNE 8 16 - - - - - - - 8.2 1007.9 0.2
19/06:00am N 6 13 - - - - - - - 9.4 1007.5 0.2
19/05:30am ENE 8 16 - - - - - - - 8.8 1007.1 0.2
19/05:00am NE 4 9 - - - - - - - 8.5 1006.7 0.2
19/04:30am WSW 8 18 - - - - - - - 9.3 1006.5 0.0
19/04:00am WNW 8 16 - - - - - - - 9.0 1006.4 0.0
19/03:30am NNW 6 10 - - - - - - - 8.4 1006.5 0.0
19/03:00am SW 4 8 - - - - - - - 8.6 1006.4 0.0
19/02:30am SE 5 8 - - - - - - - 8.2 1006.0 0.0
19/02:00am NNW 4 5 - - - - - - - 7.8 1005.3 0.0
19/01:30am SW 10 15 - - - - - - - 8.6 1004.7 0.0
19/01:00am S 9 15 - - - - - - - 9.2 1004.5 0.0
19/12:30am S 11 18 - - - - - - - 9.7 1003.7 0.0
19/12:00am W 3 10 - - - - - - - 9.8 1003.4 0.0
 
Date/Time
EST
Wind Sea
Height
m
Swell Vis
km
Cloud Weather Temp
°C
Press
hPa
Rain since
9am
mm
Dir  Spd
kts
Gust
kts
Height
m
Period
s
Dir
18/11:30pm NNW 10 17 - - - - - - - 10.1 1002.1 0.0
18/11:00pm NNW 14 21 - - - - - - - 10.2 1001.2 0.0
18/10:52pm NNW 15 22 - - - - - - - 10.1 1001.1 0.0
18/10:30pm NNW 9 12 - - - - - - - 9.8 1001.3 0.0
18/10:00pm N 10 16 - - - - - - - 9.4 1001.2 0.0
18/09:30pm NNW 11 17 - - - - - - - 9.6 1001.4 0.0
18/09:00pm NNW 10 16 - - - - - - - 10.2 1002.1 0.0
18/08:30pm NNW 9 12 - - - - - - - 10.1 1002.6 0.0
18/08:00pm N 13 18 - - - - - - - 10.2 1002.9 0.0
18/07:30pm N 13 20 - - - - - - - 9.9 1003.1 0.0
18/07:00pm NNW 14 21 - - - - - - - 9.9 1002.9 0.0
18/06:30pm N 12 18 - - - - - - - 9.9 1003.8 0.0
18/06:00pm N 15 21 - - - - - - - 9.9 1004.6 0.0
18/05:30pm NNW 14 21 - - - - - - - 10.0 1004.6 0.0
18/05:00pm NNW 9 15 - - - - - - - 9.8 1005.2 0.0
18/04:30pm NNW 10 15 - - - - - - - 9.9 1005.6 0.0
18/04:00pm NW 13 21 - - - - - - - 10.0 1006.2 0.0
18/03:43pm NW 17 27 - - - - - - - 10.1 1005.9 0.0
18/03:30pm NNW 19 27 - - - - - - - 10.2 1005.5 0.0
18/03:12pm NNW 19 29 - - - - - - - 10.2 1005.8 0.0
18/03:00pm NNW 19 27 - - - - - - - 10.3 1005.7 0.0
18/02:30pm NNW 14 24 - - - - - - - 10.2 1006.1 0.0
18/02:18pm NW 15 25 - - - - - - - 10.2 1006.4 0.0
18/02:00pm NW 11 20 - - - - - - - 10.3 1006.4 0.0
18/01:48pm NNW 16 26 - - - - - - - 10.3 1006.4 0.0
18/01:30pm NNW 15 24 - - - - - - - 10.4 1006.8 0.0
18/01:00pm NNW 15 28 - - - - - - - 10.7 1007.4 0.0
18/12:46pm NNW 15 26 - - - - - - - 10.7 1007.7 0.0
18/12:30pm NNW 13 19 - - - - - - - 10.9 1007.8 0.0
18/12:00pm NW 11 18 - - - - - - - 11.1 1008.4 0.0
18/11:30am NW 9 14 - - - - - - - 10.6 1008.9 0.0
18/11:00am WNW 5 13 - - - - - - - 10.6 1009.2 0.0
18/10:30am CALM 0 0 - - - - - - - 9.8 1009.6 0.0
18/10:00am SSE 4 7 - - - - - - - 9.3 1009.6 0.0
18/09:30am SSE 4 6 - - - - - - - 9.1 1009.4 0.0
18/09:00am S 5 6 - - - - - - - 7.0 1009.6 7.2
18/08:30am WNW 3 7 - - - - - - - 6.1 1009.7 7.2
18/08:00am W 4 9 - - - - - - - 5.7 1009.5 7.2
18/07:30am NW 3 5 - - - - - - - 5.9 1009.3 7.2
18/07:00am SSW 4 6 - - - - - - - 6.3 1008.9 7.2
18/06:30am NE 4 7 - - - - - - - 7.1 1008.4 7.2
18/06:00am NNW 6 13 - - - - - - - 7.6 1008.4 7.2
18/05:30am NNW 4 9 - - - - - - - 7.4 1007.8 7.2
18/05:00am NW 6 14 - - - - - - - 7.7 1007.3 7.2
18/04:30am SW 11 17 - - - - - - - 8.4 1006.7 7.2
18/04:00am NW 5 9 - - - - - - - 7.2 1006.8 7.2
18/03:30am W 8 17 - - - - - - - 7.7 1006.4 7.2
18/03:00am WNW 6 11 - - - - - - - 7.3 1006.0 7.2
18/02:30am NNW 7 13 - - - - - - - 6.8 1005.8 7.2
18/02:00am SW 7 13 - - - - - - - 7.4 1005.1 7.2
18/01:30am SW 10 20 - - - - - - - 7.6 1004.6 7.2
18/01:00am NNW 7 13 - - - - - - - 6.9 1004.0 7.0
18/12:30am N 9 14 - - - - - - - 6.7 1003.6 7.0
18/12:00am W 10 21 - - - - - - - 7.2 1003.0 7.0
 
Date/Time
EST
Wind Sea
Height
m
Swell Vis
km
Cloud Weather Temp
°C
Press
hPa
Rain since
9am
mm
Dir  Spd
kts
Gust
kts
Height
m
Period
s
Dir
17/11:33pm WSW 15 26 - - - - - - - 7.2 1002.5 7.0
17/11:30pm WSW 14 26 - - - - - - - 7.1 1002.3 7.0
17/11:11pm SW 15 27 - - - - - - - 7.0 1001.9 7.0
17/11:00pm NNE 7 18 - - - - - - - 7.4 1002.0 7.0
17/10:30pm NNW 5 10 - - - - - - - 6.7 1001.5 7.0
17/10:00pm SW 15 28 - - - - - - - 6.3 1001.2 6.8
17/09:38pm SSW 13 30 - - - - - - - 6.6 1001.0 5.6
17/09:30pm E 7 15 - - - - - - - 6.7 1001.0 5.0
17/09:00pm W 13 23 - - - - - - Rain 7.0 1000.8 4.6
17/08:30pm SW 11 22 - - - - - - - 7.6 1000.3 3.6
17/08:00pm W 9 19 - - - - - - - 8.3 999.7 3.2
17/07:30pm SW 8 14 - - - - - - - 7.0 999.9 3.2
17/07:04pm WSW 15 26 - - - - - - - 8.8 999.1 2.6
17/07:00pm WSW 12 21 - - - - - - - 8.5 999.0 2.6
17/06:30pm WSW 16 29 - - - - - - - 8.2 998.7 2.6
17/06:00pm WSW 19 30 - - - - - - Rain 8.0 999.0 2.4
17/05:37pm W 14 36 - - - - - - - 9.5 997.7 2.0
17/05:30pm W 12 22 - - - - - - - 9.5 997.7 2.0
17/05:14pm W 15 25 - - - - - - - 10.2 997.8 2.0
17/05:00pm W 11 18 - - - - - - - 9.9 997.8 2.0
17/04:30pm WNW 11 22 - - - - - - - 9.9 997.2 2.0
17/04:00pm WNW 13 19 - - - - - - - 9.2 997.1 1.8
17/03:30pm SW 13 21 - - - - - - - 9.0 997.3 1.2
17/03:00pm WNW 11 22 - - - - - - Recent precip. 11.4 996.6 0.6
17/02:30pm N 5 12 - - - - - - - 10.8 996.4 0.6
17/02:00pm NW 15 35 - - - - - - - 11.7 997.0 0.0
17/01:53pm NNW 15 35 - - - - - - - 11.8 996.6 0.0
17/01:30pm NW 11 19 - - - - - - - 11.4 996.9 0.0
17/01:00pm NW 23 34 - - - - - - - 12.5 996.4 0.0
17/12:30pm NW 16 29 - - - - - - - 12.8 996.3 0.0
17/12:00pm NNW 17 29 - - - - - - - 12.7 997.4 0.0
17/11:30am NNW 18 33 - - - - - - - 12.4 998.6 0.0
17/11:00am NNW 15 25 - - - - - - - 12.1 999.4 0.0
17/10:30am NNW 11 21 - - - - - - - 12.0 1000.2 0.0
17/10:00am NNE 9 16 - - - - - - - 11.6 1000.5 0.0
17/09:30am N 11 20 - - - - - - - 11.3 1000.9 0.0
17/09:00am N 9 16 - - - - - - - 11.3 1001.7 0.0
17/08:30am N 9 13 - - - - - - - 10.5 1002.1 0.0
17/08:00am N 12 17 - - - - - - - 10.3 1002.8 0.0
17/07:30am N 9 14 - - - - - - - 9.9 1003.5 0.0
17/07:00am N 11 16 - - - - - - - 9.9 1003.8 0.0
17/06:30am N 9 15 - - - - - - - 10.0 1004.3 0.0
17/06:00am N 11 17 - - - - - - - 10.2 1004.7 0.0
17/05:30am N 9 17 - - - - - - - 10.6 1004.9 0.0
17/05:00am N 11 16 - - - - - - - 10.4 1005.2 0.0
17/04:30am N 9 14 - - - - - - - 10.3 1005.8 0.0
17/04:00am NW 11 17 - - - - - - - 10.9 1006.1 0.0
17/03:30am NNW 11 18 - - - - - - - 10.9 1006.7 0.0
17/03:00am N 7 14 - - - - - - - 11.1 1007.0 0.0
17/02:30am NNE 9 11 - - - - - - - 11.0 1007.4 0.0
17/02:00am N 9 13 - - - - - - - 10.9 1007.7 0.0
17/01:30am N 11 15 - - - - - - - 10.8 1007.6 0.0
17/01:00am N 13 18 - - - - - - - 10.9 1008.0 0.0
17/12:30am NNW 14 21 - - - - - - - 11.2 1008.0 0.0
17/12:00am NNW 14 19 - - - - - - - 11.2 1008.2 0.0
 
Date/Time
EST
Wind Sea
Height
m
Swell Vis
km
Cloud Weather Temp
°C
Press
hPa
Rain since
9am
mm
Dir  Spd
kts
Gust
kts
Height
m
Period
s
Dir
16/11:30pm NNW 13 18 - - - - - - - 11.2 1008.5 0.0
16/11:00pm NNW 15 21 - - - - - - - 11.3 1008.9 0.0
16/10:30pm NNW 11 17 - - - - - - - 11.5 1009.4 0.0
16/10:00pm NNW 11 16 - - - - - - - 11.6 1009.5 0.0
16/09:30pm NNW 9 13 - - - - - - - 11.7 1009.6 0.0
16/09:00pm NW 9 14 - - - - - - - 11.8 1009.7 0.0
16/08:30pm WSW 5 11 - - - - - - - 11.7 1009.9 0.0

Other formats

Comma delimited format used in spreadsheet applications
http://www.bom.gov.au/fwo/IDT60701/IDT60701.94970.axf

JavaScript Object Notation format (JSON) in row-major order
http://www.bom.gov.au/fwo/IDT60701/IDT60701.94970.json

Data quality

Most of these data are generated automatically and are frequently updated. Quality checks on data are not normally performed. It is possible for incorrect values to appear. Refer to information at About Latest Weather Observations and please check the disclaimer before using these data.